createdAt,value
2023-04-18T00:00:06.340Z,94526.66
2023-04-18T00:02:40.144Z,94535.16
2023-04-18T00:05:07.899Z,94529.78
2023-04-18T00:07:35.517Z,94530.38
2023-04-18T00:10:03.551Z,94534.78
2023-04-18T00:12:30.173Z,94534.78
2023-04-18T00:14:58.765Z,94528.56
2023-04-18T00:17:27.622Z,94545.28
2023-04-18T00:19:56.429Z,94516.97
2023-04-18T00:22:23.541Z,94528.22
2023-04-18T00:24:50.636Z,94534.47
2023-04-18T00:27:21.312Z,94530.19
2023-04-18T00:29:48.228Z,94534.66
2023-04-18T00:32:16.690Z,94530.31
2023-04-18T00:34:43.344Z,94533.81
2023-04-18T00:37:09.969Z,94529.44
2023-04-18T00:39:36.889Z,94529.34
2023-04-18T00:42:03.845Z,94531.09
2023-04-18T00:44:31.097Z,94526.47
2023-04-18T00:46:57.947Z,94538.56
2023-04-18T00:49:25.879Z,94534.84
2023-04-18T00:51:54.204Z,94520.25
2023-04-18T00:54:21.767Z,94517.53
2023-04-18T00:56:50.466Z,94515.97
2023-04-18T00:59:18.548Z,94515.38
2023-04-18T01:01:45.603Z,94518.97
2023-04-18T01:04:12.777Z,94509.84
2023-04-18T01:06:40.741Z,94512.00
2023-04-18T01:09:07.484Z,94512.16
2023-04-18T01:11:34.153Z,94504.38
2023-04-18T01:14:05.064Z,94510.00
2023-04-18T01:16:36.935Z,94504.56
2023-04-18T01:19:04.275Z,94508.09
2023-04-18T01:21:33.847Z,94504.63
2023-04-18T01:24:05.095Z,94508.97
2023-04-18T01:26:50.649Z,94510.66
2023-04-18T01:29:17.373Z,94514.63
2023-04-18T01:31:44.099Z,94506.25
2023-04-18T01:34:11.738Z,94511.50
2023-04-18T01:36:41.599Z,94509.31
2023-04-18T01:39:10.818Z,94511.22
2023-04-18T01:41:37.652Z,94510.72
2023-04-18T01:44:04.723Z,94504.38
2023-04-18T01:46:31.861Z,94501.56
2023-04-18T01:49:01.044Z,94500.75
2023-04-18T01:51:28.510Z,94499.56
2023-04-18T01:53:55.438Z,94505.03
2023-04-18T01:56:22.329Z,94492.69
2023-04-18T01:58:49.060Z,94497.00
2023-04-18T02:01:15.773Z,94503.41
2023-04-18T02:03:43.654Z,94496.81
2023-04-18T02:06:12.696Z,94504.97
2023-04-18T02:08:39.356Z,94502.31
2023-04-18T02:11:06.066Z,94516.06
2023-04-18T02:13:32.979Z,94504.44
2023-04-18T02:15:59.732Z,94510.44
2023-04-18T02:18:26.897Z,94504.28
2023-04-18T02:20:53.536Z,94507.13
2023-04-18T02:23:22.035Z,94506.44
2023-04-18T02:25:48.764Z,94513.31
2023-04-18T02:28:17.426Z,94512.78
2023-04-18T02:30:44.038Z,94498.72
2023-04-18T02:33:10.892Z,94514.84
2023-04-18T02:35:38.013Z,94515.69
2023-04-18T02:38:04.651Z,94526.91
2023-04-18T02:40:31.308Z,94526.56
2023-04-18T02:42:59.357Z,94520.69
2023-04-18T02:45:26.237Z,94520.44
2023-04-18T02:47:55.879Z,94517.66
2023-04-18T02:50:23.829Z,94520.31
2023-04-18T02:52:51.480Z,94521.53
2023-04-18T02:55:21.068Z,94521.44
2023-04-18T02:57:48.270Z,94521.38
2023-04-18T03:00:37.366Z,94524.47
2023-04-18T03:03:36.309Z,94524.56
2023-04-18T03:06:23.782Z,94520.66
2023-04-18T03:08:53.123Z,94521.72
2023-04-18T03:11:20.081Z,94517.69
2023-04-18T03:13:47.239Z,94523.44
2023-04-18T03:16:14.739Z,94529.34
2023-04-18T03:18:42.541Z,94535.81
2023-04-18T03:21:09.354Z,94535.69
2023-04-18T03:23:36.751Z,94544.28
2023-04-18T03:26:06.293Z,94538.09
2023-04-18T03:28:34.929Z,94543.78
2023-04-18T03:31:01.840Z,94550.88
2023-04-18T03:33:29.451Z,94547.63
2023-04-18T03:36:06.244Z,94547.69
2023-04-18T03:38:33.282Z,94558.91
2023-04-18T03:41:00.489Z,94555.50
2023-04-18T03:43:32.866Z,94551.22
2023-04-18T03:45:59.793Z,94552.94
2023-04-18T03:48:27.232Z,94549.66
2023-04-18T03:50:54.551Z,94559.19
2023-04-18T03:53:21.384Z,94550.25
2023-04-18T03:55:48.603Z,94549.91
2023-04-18T03:58:23.635Z,94550.75
2023-04-18T04:00:51.957Z,94553.88
2023-04-18T04:03:19.274Z,94558.63
2023-04-18T04:05:46.536Z,94554.63
2023-04-18T04:08:16.344Z,94562.72
2023-04-18T04:10:45.193Z,94559.81
2023-04-18T04:13:11.948Z,94562.88
2023-04-18T04:15:40.749Z,94557.09
2023-04-18T04:18:09.931Z,94558.16
2023-04-18T04:20:39.814Z,94566.50
2023-04-18T04:23:13.649Z,94561.69
2023-04-18T04:25:42.668Z,94567.09
2023-04-18T04:28:22.873Z,94565.19
2023-04-18T04:30:55.711Z,94575.06
2023-04-18T04:33:25.653Z,94574.16
2023-04-18T04:35:55.525Z,94571.09
2023-04-18T04:38:23.136Z,94570.41
2023-04-18T04:40:52.952Z,94576.34
2023-04-18T04:43:20.451Z,94577.38
2023-04-18T04:45:53.110Z,94575.59
2023-04-18T04:48:24.820Z,94582.63
2023-04-18T04:50:53.811Z,94580.69
2023-04-18T04:53:20.502Z,94587.19
2023-04-18T04:55:48.086Z,94592.84
2023-04-18T04:58:16.726Z,94585.00
2023-04-18T05:01:09.305Z,94583.81
2023-04-18T05:03:38.389Z,94595.56
2023-04-18T05:06:05.483Z,94594.22
2023-04-18T05:08:32.363Z,94599.69
2023-04-18T05:10:58.961Z,94599.44
2023-04-18T05:13:25.744Z,94594.16
2023-04-18T05:15:52.718Z,94596.69
2023-04-18T05:18:19.476Z,94596.81
2023-04-18T05:20:46.222Z,94606.78
2023-04-18T05:23:13.108Z,94604.50
2023-04-18T05:25:39.805Z,94594.63
2023-04-18T05:28:08.332Z,94594.63
2023-04-18T05:30:34.975Z,94600.53
2023-04-18T05:33:02.774Z,94606.41
2023-04-18T05:35:29.410Z,94600.31
2023-04-18T05:37:56.084Z,94609.31
2023-04-18T05:40:22.726Z,94590.78
2023-04-18T05:42:49.492Z,94601.16
2023-04-18T05:45:16.154Z,94607.97
2023-04-18T05:47:42.881Z,94610.03
2023-04-18T05:50:09.852Z,94610.59
2023-04-18T05:52:38.163Z,94616.91
2023-04-18T05:55:05.543Z,94617.38
2023-04-18T05:57:32.304Z,94613.22
2023-04-18T05:59:59.028Z,94613.41
2023-04-18T06:02:26.171Z,94606.41
2023-04-18T06:04:52.912Z,94611.34
2023-04-18T06:07:19.905Z,94613.41
2023-04-18T06:09:46.784Z,94614.66
2023-04-18T06:12:13.387Z,94611.66
2023-04-18T06:14:40.745Z,94616.63
2023-04-18T06:17:07.508Z,94603.44
2023-04-18T06:19:34.297Z,94608.53
2023-04-18T06:22:01.408Z,94602.66
2023-04-18T06:24:29.635Z,94605.97
2023-04-18T06:26:57.557Z,94610.63
2023-04-18T06:29:27.209Z,94615.41
2023-04-18T06:31:53.897Z,94613.47
2023-04-18T06:34:20.750Z,94610.78
2023-04-18T06:36:47.481Z,94612.78
2023-04-18T06:39:14.236Z,94609.16
2023-04-18T06:41:40.879Z,94611.13
2023-04-18T06:44:07.851Z,94611.94
2023-04-18T06:46:34.531Z,94607.16
2023-04-18T06:49:01.244Z,94610.63
2023-04-18T06:51:28.244Z,94610.63
2023-04-18T06:53:54.905Z,94607.84
2023-04-18T06:56:21.884Z,94614.06
2023-04-18T06:58:48.875Z,94611.72
2023-04-18T07:01:16.046Z,94623.56
2023-04-18T07:03:42.791Z,94622.53
2023-04-18T07:06:10.941Z,94612.69
2023-04-18T07:08:37.814Z,94616.00
2023-04-18T07:11:05.457Z,94628.69
2023-04-18T07:13:32.098Z,94622.41
2023-04-18T07:15:58.878Z,94627.47
2023-04-18T07:18:36.615Z,94624.06
2023-04-18T07:21:07.394Z,94629.50
2023-04-18T07:23:34.535Z,94623.03
2023-04-18T07:26:02.727Z,94626.19
2023-04-18T07:28:29.728Z,94623.22
2023-04-18T07:30:57.058Z,94623.06
2023-04-18T07:33:24.109Z,94628.66
2023-04-18T07:35:52.476Z,94624.63
2023-04-18T07:38:19.138Z,94620.78
2023-04-18T07:40:45.856Z,94622.50
2023-04-18T07:43:13.498Z,94624.03
2023-04-18T07:45:43.382Z,94626.97
2023-04-18T07:48:10.096Z,94627.00
2023-04-18T07:50:36.812Z,94613.75
2023-04-18T07:53:03.673Z,94623.03
2023-04-18T07:55:30.794Z,94630.31
2023-04-18T07:57:57.504Z,94627.56
2023-04-18T08:00:24.502Z,94630.72
2023-04-18T08:02:51.390Z,94630.19
2023-04-18T08:05:21.243Z,94630.56
2023-04-18T08:07:48.053Z,94630.91
2023-04-18T08:10:14.758Z,94637.81
2023-04-18T08:12:42.408Z,94624.94
2023-04-18T08:15:09.354Z,94641.25
2023-04-18T08:17:36.290Z,94638.41
2023-04-18T08:20:07.321Z,94630.84
2023-04-18T08:22:34.000Z,94614.88
2023-04-18T08:25:05.352Z,94638.22
2023-04-18T08:27:32.778Z,94632.56
2023-04-18T08:30:00.513Z,94629.59
2023-04-18T08:32:27.268Z,94627.00
2023-04-18T08:34:53.913Z,94628.56
2023-04-18T08:37:20.837Z,94635.03
2023-04-18T08:39:47.505Z,94632.31
2023-04-18T08:42:16.479Z,94631.53
2023-04-18T08:44:43.165Z,94619.84
2023-04-18T08:47:10.760Z,94626.53
2023-04-18T08:49:37.467Z,94616.03
2023-04-18T08:52:10.004Z,94611.94
2023-04-18T08:54:37.340Z,94615.38
2023-04-18T08:57:08.795Z,94621.03
2023-04-18T08:59:35.893Z,94619.94
2023-04-18T09:02:04.023Z,94615.75
2023-04-18T09:04:37.994Z,94619.34
2023-04-18T09:07:06.696Z,94617.31
2023-04-18T09:09:40.450Z,94620.78
2023-04-18T09:12:08.638Z,94614.13
2023-04-18T09:14:36.665Z,94620.09
2023-04-18T09:17:04.294Z,94607.41
2023-04-18T09:19:31.149Z,94619.19
2023-04-18T09:21:59.317Z,94620.69
2023-04-18T09:24:27.264Z,94607.94
2023-04-18T09:26:55.900Z,94616.97
2023-04-18T09:29:23.544Z,94621.50
2023-04-18T09:32:08.363Z,94624.50
2023-04-18T09:34:38.333Z,94627.31
2023-04-18T09:37:06.794Z,94624.81
2023-04-18T09:39:33.516Z,94619.78
2023-04-18T09:42:03.199Z,94623.13
2023-04-18T09:44:30.005Z,94629.00
2023-04-18T09:46:56.677Z,94621.59
2023-04-18T09:49:23.685Z,94618.88
2023-04-18T09:51:51.543Z,94614.66
2023-04-18T09:54:18.542Z,94618.91
2023-04-18T09:56:46.161Z,94613.72
2023-04-18T09:59:18.067Z,94617.47
2023-04-18T10:01:48.446Z,94616.19
2023-04-18T10:04:16.903Z,94611.22
2023-04-18T10:06:45.942Z,94614.16
2023-04-18T10:09:14.835Z,94609.03
2023-04-18T10:11:41.840Z,94611.41
2023-04-18T10:14:10.064Z,94604.16
2023-04-18T10:16:37.544Z,94605.75
2023-04-18T10:19:44.301Z,94603.84
2023-04-18T10:22:11.624Z,94600.16
2023-04-18T10:24:52.946Z,94602.47
2023-04-18T10:27:39.939Z,94605.28
2023-04-18T10:30:08.636Z,94608.28
2023-04-18T10:32:36.410Z,94598.44
2023-04-18T10:35:04.672Z,94590.00
2023-04-18T10:37:31.988Z,94600.16
2023-04-18T10:40:06.271Z,94596.72
2023-04-18T10:42:48.249Z,94594.53
2023-04-18T10:45:18.573Z,94590.88
2023-04-18T10:47:45.412Z,94594.72
2023-04-18T10:50:12.286Z,94589.06
2023-04-18T10:52:39.131Z,94590.75
2023-04-18T10:55:08.922Z,94590.38
2023-04-18T10:57:45.674Z,94584.09
2023-04-18T11:00:14.085Z,94582.94
2023-04-18T11:02:47.613Z,94588.44
2023-04-18T11:05:18.470Z,94583.66
2023-04-18T11:07:46.241Z,94577.31
2023-04-18T11:10:15.900Z,94583.34
2023-04-18T11:12:42.436Z,94569.03
2023-04-18T11:15:12.110Z,94570.19
2023-04-18T11:17:40.246Z,94573.56
2023-04-18T11:20:14.338Z,94566.25
2023-04-18T11:22:50.259Z,94551.06
2023-04-18T11:25:17.812Z,94554.34
2023-04-18T11:27:45.145Z,94552.50
2023-04-18T11:30:13.155Z,94555.22
2023-04-18T11:32:40.147Z,94557.97
2023-04-18T11:35:10.604Z,94570.41
2023-04-18T11:37:37.988Z,94563.84
2023-04-18T11:40:07.560Z,94559.06
2023-04-18T11:42:34.848Z,94566.09
2023-04-18T11:45:02.007Z,94574.25
2023-04-18T11:47:34.010Z,94578.59
2023-04-18T11:50:01.960Z,94581.72
2023-04-18T11:52:30.189Z,94574.63
2023-04-18T11:54:58.328Z,94576.69
2023-04-18T11:57:24.976Z,94581.16
2023-04-18T11:59:54.304Z,94570.81
2023-04-18T12:02:21.906Z,94555.50
2023-04-18T12:04:58.990Z,94581.09
2023-04-18T12:07:32.855Z,94578.94
2023-04-18T12:09:59.780Z,94590.25
2023-04-18T12:12:26.414Z,94584.94
2023-04-18T12:15:00.166Z,94581.75
2023-04-18T12:17:28.081Z,94579.13
2023-04-18T12:19:55.484Z,94579.03
2023-04-18T12:22:38.537Z,94570.16
2023-04-18T12:25:20.140Z,94574.34
2023-04-18T12:27:47.807Z,94565.34
2023-04-18T12:30:15.698Z,94571.22
2023-04-18T12:32:44.864Z,94578.47
2023-04-18T12:35:11.697Z,94579.22
2023-04-18T12:37:38.340Z,94576.09
2023-04-18T12:40:06.652Z,94572.38
2023-04-18T12:42:33.671Z,94576.72
2023-04-18T12:45:00.768Z,94576.25
2023-04-18T12:47:27.434Z,94582.22
2023-04-18T12:49:54.155Z,94585.69
2023-04-18T12:52:20.785Z,94591.91
2023-04-18T12:54:47.432Z,94589.63
2023-04-18T12:57:13.966Z,94591.59
2023-04-18T12:59:40.680Z,94584.97
2023-04-18T13:02:07.586Z,94590.44
2023-04-18T13:04:34.727Z,94598.22
2023-04-18T13:07:01.590Z,94582.16
2023-04-18T13:09:28.480Z,94586.25
2023-04-18T13:11:55.006Z,94594.34
2023-04-18T13:14:21.723Z,94593.56
2023-04-18T13:16:48.850Z,94589.69
2023-04-18T13:19:15.691Z,94598.44
2023-04-18T13:21:42.609Z,94599.25
2023-04-18T13:24:09.291Z,94594.63
2023-04-18T13:26:36.147Z,94596.38
2023-04-18T13:29:02.995Z,94583.53
2023-04-18T13:31:29.892Z,94588.13
2023-04-18T13:33:56.515Z,94595.88
2023-04-18T13:36:24.332Z,94592.03
2023-04-18T13:38:51.488Z,94592.25
2023-04-18T13:41:18.157Z,94594.66
2023-04-18T13:43:44.783Z,94595.25
2023-04-18T13:46:11.922Z,94596.50
2023-04-18T13:48:38.578Z,94597.00
2023-04-18T13:51:05.778Z,94596.81
2023-04-18T13:53:32.601Z,94595.47
2023-04-18T13:56:01.206Z,94589.38
2023-04-18T13:58:27.860Z,94588.03
2023-04-18T14:00:54.489Z,94598.19
2023-04-18T14:03:22.404Z,94598.75
2023-04-18T14:05:49.180Z,94599.75
2023-04-18T14:08:15.960Z,94595.59
2023-04-18T14:10:42.512Z,94599.50
2023-04-18T14:13:09.123Z,94599.69
2023-04-18T14:15:35.845Z,94606.91
2023-04-18T14:18:02.776Z,94598.38
2023-04-18T14:20:34.569Z,94603.00
2023-04-18T14:23:02.076Z,94601.25
2023-04-18T14:25:29.330Z,94613.06
2023-04-18T14:28:09.770Z,94613.25
2023-04-18T14:30:37.805Z,94605.09
2023-04-18T14:33:04.452Z,94600.88
2023-04-18T14:35:31.659Z,94615.91
2023-04-18T14:37:58.356Z,94616.41
2023-04-18T14:40:25.077Z,94608.34
2023-04-18T14:42:51.631Z,94613.03
2023-04-18T14:45:18.340Z,94615.16
2023-04-18T14:47:44.928Z,94617.38
2023-04-18T14:50:12.135Z,94612.06
2023-04-18T14:52:39.077Z,94618.09
2023-04-18T14:55:06.885Z,94623.44
2023-04-18T14:57:37.078Z,94618.44
2023-04-18T15:00:10.048Z,94626.94
2023-04-18T15:02:37.437Z,94626.38
2023-04-18T15:05:04.693Z,94632.16
2023-04-18T15:07:31.408Z,94634.72
2023-04-18T15:09:58.028Z,94636.00
2023-04-18T15:12:24.890Z,94627.03
2023-04-18T15:14:53.978Z,94640.97
2023-04-18T15:17:20.877Z,94655.06
2023-04-18T15:19:47.865Z,94649.94
2023-04-18T15:22:14.565Z,94647.91
2023-04-18T15:24:41.421Z,94654.66
2023-04-18T15:27:08.215Z,94658.00
2023-04-18T15:29:35.860Z,94659.09
2023-04-18T15:32:02.592Z,94664.75
2023-04-18T15:34:29.704Z,94670.94
2023-04-18T15:36:56.593Z,94663.66
2023-04-18T15:39:24.052Z,94672.50
2023-04-18T15:41:54.571Z,94665.06
2023-04-18T15:44:21.870Z,94664.00
2023-04-18T15:46:49.151Z,94664.81
2023-04-18T15:49:15.836Z,94669.63
2023-04-18T15:51:42.644Z,94668.16
2023-04-18T15:54:09.364Z,94676.47
2023-04-18T15:56:37.294Z,94672.19
2023-04-18T15:59:04.779Z,94676.56
2023-04-18T16:01:32.374Z,94677.25
2023-04-18T16:03:59.101Z,94672.50
2023-04-18T16:06:26.597Z,94676.00
2023-04-18T16:08:53.375Z,94677.16
2023-04-18T16:11:20.934Z,94673.56
2023-04-18T16:13:47.832Z,94679.53
2023-04-18T16:16:14.487Z,94688.63
2023-04-18T16:18:41.557Z,94685.25
2023-04-18T16:21:09.173Z,94682.78
2023-04-18T16:23:35.848Z,94687.78
2023-04-18T16:26:02.920Z,94682.13
2023-04-18T16:28:30.788Z,94684.81
2023-04-18T16:30:57.729Z,94693.44
2023-04-18T16:33:27.195Z,94693.25
2023-04-18T16:35:56.695Z,94696.34
2023-04-18T16:38:25.125Z,94691.47
2023-04-18T16:40:51.919Z,94695.84
2023-04-18T16:43:18.483Z,94691.50
2023-04-18T16:45:45.275Z,94686.56
2023-04-18T16:48:11.853Z,94690.09
2023-04-18T16:50:38.663Z,94693.03
2023-04-18T16:53:07.296Z,94694.53
2023-04-18T16:55:33.962Z,94696.28
2023-04-18T16:58:01.817Z,94691.19
2023-04-18T17:00:28.486Z,94704.13
2023-04-18T17:02:55.998Z,94701.22
2023-04-18T17:05:23.911Z,94705.16
2023-04-18T17:07:51.739Z,94699.50
2023-04-18T17:10:19.351Z,94706.47
2023-04-18T17:12:48.946Z,94713.09
2023-04-18T17:15:19.232Z,94716.72
2023-04-18T17:17:45.964Z,94718.69
2023-04-18T17:20:12.764Z,94724.16
2023-04-18T17:22:40.199Z,94728.06
2023-04-18T17:25:24.262Z,94731.66
2023-04-18T17:27:51.144Z,94727.88
2023-04-18T17:30:17.891Z,94723.56
2023-04-18T17:32:46.317Z,94723.38
2023-04-18T17:35:14.737Z,94718.91
2023-04-18T17:37:42.479Z,94718.50
2023-04-18T17:40:10.111Z,94715.94
2023-04-18T17:42:36.906Z,94723.47
2023-04-18T17:45:04.305Z,94712.22
2023-04-18T17:47:32.654Z,94724.94
2023-04-18T17:50:03.706Z,94720.06
2023-04-18T17:52:30.658Z,94726.41
2023-04-18T17:54:58.525Z,94729.66
2023-04-18T17:57:26.700Z,94745.63
2023-04-18T17:59:53.440Z,94745.53
2023-04-18T18:02:20.375Z,94750.91
2023-04-18T18:04:47.272Z,94754.72
2023-04-18T18:07:13.890Z,94743.75
2023-04-18T18:09:45.406Z,94751.38
2023-04-18T18:12:12.306Z,94754.94
2023-04-18T18:14:40.547Z,94755.31
2023-04-18T18:17:07.455Z,94760.78
2023-04-18T18:19:35.548Z,94764.91
2023-04-18T18:22:02.418Z,94761.66
2023-04-18T18:24:29.199Z,94768.44
2023-04-18T18:26:56.913Z,94769.59
2023-04-18T18:29:24.053Z,94775.50
2023-04-18T18:31:52.251Z,94773.34
2023-04-18T18:34:20.013Z,94781.06
2023-04-18T18:36:47.278Z,94776.50
2023-04-18T18:39:16.435Z,94779.78
2023-04-18T18:41:43.496Z,94782.91
2023-04-18T18:44:10.374Z,94777.09
2023-04-18T18:46:37.017Z,94787.59
2023-04-18T18:49:03.708Z,94781.53
2023-04-18T18:51:30.889Z,94784.03
2023-04-18T18:53:57.530Z,94781.09
2023-04-18T18:56:24.707Z,94777.25
2023-04-18T18:58:53.540Z,94787.34
2023-04-18T19:01:20.805Z,94788.88
2023-04-18T19:03:48.112Z,94785.28
2023-04-18T19:06:14.984Z,94783.00
2023-04-18T19:08:41.503Z,94783.13
2023-04-18T19:11:08.867Z,94781.75
2023-04-18T19:13:35.531Z,94777.47
2023-04-18T19:16:02.174Z,94780.59
2023-04-18T19:18:28.930Z,94775.59
2023-04-18T19:20:55.622Z,94784.47
2023-04-18T19:23:23.880Z,94782.00
2023-04-18T19:25:51.481Z,94774.06
2023-04-18T19:28:18.468Z,94785.69
2023-04-18T19:30:46.522Z,94777.47
2023-04-18T19:33:13.167Z,94775.63
2023-04-18T19:35:39.887Z,94781.22
2023-04-18T19:38:06.757Z,94784.81
2023-04-18T19:40:33.549Z,94778.44
2023-04-18T19:43:00.159Z,94782.44
2023-04-18T19:45:26.947Z,94784.50
2023-04-18T19:47:53.567Z,94783.59
2023-04-18T19:50:20.544Z,94782.75
2023-04-18T19:52:47.370Z,94789.78
2023-04-18T19:55:14.144Z,94780.22
2023-04-18T19:57:41.551Z,94781.69
2023-04-18T20:00:09.535Z,94773.72
2023-04-18T20:02:40.037Z,94770.03
2023-04-18T20:05:08.129Z,94782.94
2023-04-18T20:07:35.547Z,94785.41
2023-04-18T20:10:02.332Z,94776.97
2023-04-18T20:12:29.109Z,94776.72
2023-04-18T20:14:56.022Z,94777.16
2023-04-18T20:17:22.807Z,94775.19
2023-04-18T20:19:49.842Z,94782.56
2023-04-18T20:22:17.509Z,94773.16
2023-04-18T20:24:45.085Z,94767.69
2023-04-18T20:27:12.893Z,94767.28
2023-04-18T20:29:39.662Z,94768.66
2023-04-18T20:32:06.536Z,94769.44
2023-04-18T20:34:33.481Z,94777.63
2023-04-18T20:37:00.189Z,94779.47
2023-04-18T20:39:28.033Z,94782.81
2023-04-18T20:41:57.809Z,94767.75
2023-04-18T20:44:24.962Z,94777.03
2023-04-18T20:46:53.470Z,94770.81
2023-04-18T20:49:20.342Z,94776.94
2023-04-18T20:51:47.079Z,94776.72
2023-04-18T20:54:14.203Z,94777.44
2023-04-18T20:56:42.175Z,94781.19
2023-04-18T20:59:08.990Z,94780.03
2023-04-18T21:01:37.180Z,94785.31
2023-04-18T21:04:04.296Z,94779.88
2023-04-18T21:06:31.155Z,94778.00
2023-04-18T21:08:57.809Z,94775.59
2023-04-18T21:11:24.433Z,94774.34
2023-04-18T21:13:51.494Z,94781.16
2023-04-18T21:16:18.445Z,94771.72
2023-04-18T21:18:45.523Z,94766.16
2023-04-18T21:21:12.320Z,94768.25
2023-04-18T21:23:42.749Z,94746.78
2023-04-18T21:26:13.453Z,94757.75
2023-04-18T21:28:57.281Z,94757.75
2023-04-18T21:31:25.945Z,94763.09
2023-04-18T21:33:53.514Z,94756.56
2023-04-18T21:36:20.615Z,94772.34
2023-04-18T21:38:47.297Z,94756.34
2023-04-18T21:41:16.915Z,94752.19
2023-04-18T21:43:43.852Z,94757.47
2023-04-18T21:46:13.643Z,94749.28
2023-04-18T21:48:40.953Z,94741.53
2023-04-18T21:51:08.452Z,94752.38
2023-04-18T21:53:40.890Z,94747.91
2023-04-18T21:56:07.984Z,94751.31
2023-04-18T21:58:34.925Z,94754.94
2023-04-18T22:01:01.780Z,94752.97
2023-04-18T22:03:28.742Z,94764.91
2023-04-18T22:05:58.985Z,94752.75
2023-04-18T22:08:26.257Z,94751.97
2023-04-18T22:10:54.971Z,94755.50
2023-04-18T22:13:25.270Z,94748.84
2023-04-18T22:15:51.959Z,94755.88
2023-04-18T22:18:18.948Z,94755.63
2023-04-18T22:20:47.206Z,94757.09
2023-04-18T22:23:13.986Z,94756.09
2023-04-18T22:25:40.903Z,94750.41
2023-04-18T22:28:07.878Z,94750.03
2023-04-18T22:30:34.804Z,94759.41
2023-04-18T22:33:01.690Z,94747.69
2023-04-18T22:35:28.412Z,94747.19
2023-04-18T22:37:55.583Z,94742.78
2023-04-18T22:40:22.368Z,94744.22
2023-04-18T22:42:51.986Z,94748.44
2023-04-18T22:45:19.282Z,94736.31
2023-04-18T22:47:46.843Z,94729.44
2023-04-18T22:50:14.028Z,94738.19
2023-04-18T22:52:40.887Z,94731.78
2023-04-18T22:55:08.266Z,94733.97
2023-04-18T22:57:34.839Z,94730.03
2023-04-18T23:00:01.497Z,94725.44
2023-04-18T23:02:28.259Z,94723.09
2023-04-18T23:04:58.341Z,94726.53
2023-04-18T23:07:25.322Z,94719.91
2023-04-18T23:09:52.074Z,94719.66
2023-04-18T23:12:18.720Z,94708.88
2023-04-18T23:14:45.442Z,94715.06
2023-04-18T23:17:12.000Z,94710.28
2023-04-18T23:19:38.741Z,94716.34
2023-04-18T23:22:05.579Z,94708.31
2023-04-18T23:24:32.354Z,94715.28
2023-04-18T23:26:59.065Z,94713.59
2023-04-18T23:29:25.835Z,94709.28
2023-04-18T23:31:52.629Z,94717.94
2023-04-18T23:34:19.403Z,94720.63
2023-04-18T23:36:46.705Z,94708.59
2023-04-18T23:39:13.415Z,94705.09
2023-04-18T23:41:40.086Z,94707.44
2023-04-18T23:44:06.744Z,94707.41
2023-04-18T23:46:35.070Z,94702.44
2023-04-18T23:49:03.204Z,94697.44
2023-04-18T23:51:29.975Z,94701.81
2023-04-18T23:53:56.728Z,94698.69
2023-04-18T23:56:23.385Z,94701.19
2023-04-18T23:58:50.262Z,94691.75
